Time;durP1;ratioP1;P1;durP2;ratioP2;P2;SDS_P1;SDS_P2;PMS_P1;PMS_P2;Temp;Humidity;BMP_temperature;BMP_pressure;BME280_temperature;BME280_humidity;BME280_pressure;Samples;Min_cycle;Max_cycle;Signal;HPM_P1;HPM_P2
2020/12/09 00:00:28;;;;;;;38.35;14.48;;;1.50;99.90;;;;;;5072350;28;20025;-37
2020/12/09 00:02:53;;;;;;;144.00;39.78;;;1.60;99.90;;;;;;5077581;28;20035;-37
2020/12/09 00:05:19;;;;;;;140.77;42.92;;;1.50;99.90;;;;;;5056089;28;20043;-38
2020/12/09 00:07:44;;;;;;;71.70;27.83;;;1.60;99.90;;;;;;5054845;28;20032;-45
2020/12/09 00:10:10;;;;;;;171.50;42.63;;;1.60;99.90;;;;;;5073733;28;20029;-38
2020/12/09 00:12:35;;;;;;;70.15;20.45;;;1.50;99.90;;;;;;5077981;28;20024;-37
2020/12/09 00:15:06;;;;;;;81.78;25.65;;;1.40;99.90;;;;;;5081474;28;20029;-37
2020/12/09 00:17:31;;;;;;;92.03;30.42;;;1.40;99.90;;;;;;5055425;28;20070;-37
2020/12/09 00:19:57;;;;;;;78.97;25.15;;;1.40;99.90;;;;;;5078534;28;20036;-39
2020/12/09 00:22:25;;;;;;;103.90;30.92;;;1.30;99.90;;;;;;5080845;28;20031;-39
2020/12/09 00:24:52;;;;;;;79.50;27.20;;;1.30;99.90;;;;;;5048349;28;20477;-37
2020/12/09 00:27:18;;;;;;;85.72;31.98;;;1.40;99.90;;;;;;5081245;28;20037;-38
2020/12/09 00:29:43;;;;;;;103.80;35.33;;;1.40;99.90;;;;;;5072473;28;20038;-38
2020/12/09 00:32:09;;;;;;;141.07;42.42;;;1.40;99.90;;;;;;5073450;28;20029;-37
2020/12/09 00:34:34;;;;;;;91.00;28.05;;;1.40;99.90;;;;;;5081262;28;20067;-38
2020/12/09 00:37:00;;;;;;;121.15;37.70;;;1.40;99.90;;;;;;5076296;28;20123;-36
2020/12/09 00:39:26;;;;;;;95.28;32.65;;;1.40;99.90;;;;;;5057493;28;20031;-37
2020/12/09 00:41:51;;;;;;;134.07;39.42;;;1.40;99.90;;;;;;5084677;28;20073;-38
2020/12/09 00:44:17;;;;;;;107.88;37.30;;;1.40;99.90;;;;;;5078868;28;20084;-38
2020/12/09 00:46:42;;;;;;;120.68;37.85;;;1.40;99.90;;;;;;5082305;28;20446;-40
2020/12/09 00:49:08;;;;;;;131.63;45.13;;;1.40;99.90;;;;;;5072698;28;20028;-37
2020/12/09 00:51:34;;;;;;;146.35;45.88;;;1.40;99.90;;;;;;5062332;28;20024;-37
2020/12/09 00:53:59;;;;;;;112.60;41.47;;;1.50;99.90;;;;;;5073421;28;20048;-38
2020/12/09 00:56:25;;;;;;;144.25;42.88;;;1.50;99.90;;;;;;5073217;28;20040;-42
2020/12/09 00:58:50;;;;;;;111.35;36.70;;;1.50;99.90;;;;;;5057117;28;20045;-37
2020/12/09 01:01:16;;;;;;;131.68;46.58;;;1.50;99.90;;;;;;5074467;28;20035;-37
2020/12/09 01:03:41;;;;;;;138.25;47.17;;;1.50;99.90;;;;;;5056484;28;20730;-38
2020/12/09 01:06:07;;;;;;;127.25;40.55;;;1.50;99.90;;;;;;5075547;28;20090;-40
2020/12/09 01:08:35;;;;;;;131.15;41.40;;;1.50;99.90;;;;;;5058150;28;20082;-38
2020/12/09 01:11:01;;;;;;;113.18;40.55;;;1.50;99.90;;;;;;5078986;28;20115;-38
2020/12/09 01:13:27;;;;;;;139.60;44.95;;;1.50;99.90;;;;;;5073011;28;20472;-37
2020/12/09 01:15:53;;;;;;;113.53;38.30;;;1.50;99.90;;;;;;5070442;28;20044;-37
2020/12/09 01:18:19;;;;;;;142.07;43.80;;;1.50;99.90;;;;;;5072960;28;20078;-37
2020/12/09 01:20:44;;;;;;;50.95;20.02;;;1.50;99.90;;;;;;5060507;28;20079;-37
2020/12/09 01:23:10;;;;;;;103.45;38.08;;;1.50;99.90;;;;;;5042503;28;20028;-38
2020/12/09 01:25:35;;;;;;;106.80;40.38;;;1.40;99.90;;;;;;5084970;28;20148;-38
2020/12/09 01:28:03;;;;;;;164.15;47.03;;;1.40;99.90;;;;;;5071106;28;20032;-37
2020/12/09 01:30:30;;;;;;;82.22;31.45;;;1.30;99.90;;;;;;5078752;28;20540;-37
2020/12/09 01:32:56;;;;;;;132.57;41.40;;;1.40;99.90;;;;;;5071224;28;20044;-36
2020/12/09 01:35:22;;;;;;;105.43;34.63;;;1.30;99.90;;;;;;5064933;28;20043;-37
2020/12/09 01:37:49;;;;;;;92.75;34.92;;;1.40;99.90;;;;;;5073207;28;20025;-37
2020/12/09 01:40:15;;;;;;;119.63;37.40;;;1.30;99.90;;;;;;5073695;28;20617;-38
2020/12/09 01:42:41;;;;;;;105.95;34.20;;;1.30;99.90;;;;;;5072162;28;20029;-37
2020/12/09 01:45:06;;;;;;;106.25;33.58;;;1.30;99.90;;;;;;5073045;28;20431;-37
2020/12/09 01:47:32;;;;;;;100.25;36.92;;;1.30;99.90;;;;;;5072383;28;20041;-37
2020/12/09 01:49:59;;;;;;;119.05;41.30;;;1.20;99.90;;;;;;5059339;28;20547;-37
2020/12/09 01:52:26;;;;;;;108.60;35.55;;;1.20;99.90;;;;;;5071940;28;20089;-37
2020/12/09 01:54:55;;;;;;;94.25;32.95;;;1.20;99.90;;;;;;5080197;28;20040;-37
2020/12/09 01:57:22;;;;;;;110.88;39.75;;;1.20;99.90;;;;;;5075265;28;20100;-37
2020/12/09 01:59:48;;;;;;;104.70;35.10;;;1.20;99.90;;;;;;5039901;28;20025;-38
2020/12/09 02:02:14;;;;;;;131.10;46.85;;;1.20;99.90;;;;;;5071172;28;20040;-37
2020/12/09 02:04:41;;;;;;;98.07;36.10;;;1.20;99.90;;;;;;5083445;28;20023;-41
2020/12/09 02:07:07;;;;;;;100.38;36.85;;;1.20;99.90;;;;;;5074710;28;20048;-38
2020/12/09 02:09:33;;;;;;;104.80;39.67;;;1.30;99.90;;;;;;5048745;28;20036;-36
2020/12/09 02:11:58;;;;;;;89.47;36.30;;;1.30;99.90;;;;;;5053079;28;20444;-38
2020/12/09 02:14:24;;;;;;;95.20;29.77;;;1.30;99.90;;;;;;5072698;28;20104;-40
2020/12/09 02:16:55;;;;;;;133.63;38.90;;;1.30;99.90;;;;;;5071565;28;20497;-37
2020/12/09 02:19:22;;;;;;;70.25;24.75;;;1.20;99.90;;;;;;5071691;28;20108;-37
2020/12/09 02:21:48;;;;;;;140.65;44.92;;;1.20;99.90;;;;;;5071211;28;20058;-37
2020/12/09 02:24:15;;;;;;;144.05;42.78;;;1.20;99.90;;;;;;5075090;28;20048;-38
2020/12/09 02:26:46;;;;;;;120.95;39.33;;;1.20;99.90;;;;;;5081843;28;20114;-37
2020/12/09 02:29:11;;;;;;;92.85;29.70;;;1.20;99.90;;;;;;5049091;28;20148;-37
2020/12/09 02:31:38;;;;;;;110.72;31.65;;;1.10;99.90;;;;;;5077708;28;20043;-38
2020/12/09 02:34:04;;;;;;;68.90;25.45;;;1.10;99.90;;;;;;5073818;28;20354;-37
2020/12/09 02:36:29;;;;;;;78.25;27.55;;;1.00;99.90;;;;;;5073380;28;20078;-37
2020/12/09 02:38:55;;;;;;;83.68;30.70;;;1.00;99.90;;;;;;5056137;28;20044;-37
2020/12/09 02:41:21;;;;;;;71.03;26.30;;;1.00;99.90;;;;;;5062043;28;20047;-38
2020/12/09 02:43:46;;;;;;;109.22;35.90;;;1.00;99.90;;;;;;5071544;28;20111;-37
2020/12/09 02:46:12;;;;;;;73.60;26.38;;;1.00;99.90;;;;;;5052690;28;20055;-36
2020/12/09 02:48:37;;;;;;;93.97;31.30;;;1.00;99.90;;;;;;5073838;28;20111;-37
2020/12/09 02:51:03;;;;;;;98.05;34.83;;;1.00;99.90;;;;;;5053836;28;20025;-37
2020/12/09 02:53:29;;;;;;;85.35;27.95;;;1.00;99.90;;;;;;5076655;28;20033;-39
2020/12/09 02:55:54;;;;;;;47.92;17.42;;;1.00;99.90;;;;;;5082774;28;20032;-38
2020/12/09 02:58:20;;;;;;;59.95;19.10;;;1.00;99.90;;;;;;5070208;28;20059;-38
2020/12/09 03:00:45;;;;;;;103.15;33.50;;;0.90;99.90;;;;;;5072155;28;20028;-38
2020/12/09 03:03:11;;;;;;;93.85;29.75;;;0.90;99.90;;;;;;5075102;28;20039;-38
2020/12/09 03:05:37;;;;;;;143.07;43.50;;;0.90;99.90;;;;;;5075062;28;20033;-38
2020/12/09 03:08:03;;;;;;;56.58;17.73;;;0.90;99.90;;;;;;5078433;28;20121;-40
2020/12/09 03:10:28;;;;;;;71.43;23.65;;;0.80;99.90;;;;;;5074222;28;20039;-39
2020/12/09 03:12:54;;;;;;;70.28;21.48;;;0.80;99.90;;;;;;5047271;28;20036;-40
2020/12/09 03:15:20;;;;;;;72.50;21.17;;;0.80;99.90;;;;;;5076880;28;20044;-39
2020/12/09 03:17:45;;;;;;;78.97;22.00;;;0.80;99.90;;;;;;5074917;28;20036;-39
2020/12/09 03:20:11;;;;;;;51.22;16.42;;;0.80;99.90;;;;;;5080228;28;20031;-40
2020/12/09 03:22:37;;;;;;;98.47;27.60;;;0.80;99.90;;;;;;5074958;28;20039;-39
2020/12/09 03:25:03;;;;;;;86.82;30.70;;;0.80;99.90;;;;;;5081996;28;20039;-40
2020/12/09 03:27:28;;;;;;;83.78;25.52;;;0.80;99.90;;;;;;5075458;28;20025;-39
2020/12/09 03:29:54;;;;;;;89.53;31.83;;;0.80;99.90;;;;;;5056552;28;20473;-42
2020/12/09 03:32:19;;;;;;;84.55;25.73;;;0.80;99.90;;;;;;5075245;28;20119;-39
2020/12/09 03:34:45;;;;;;;97.88;30.27;;;0.80;99.90;;;;;;5082974;28;20024;-39
2020/12/09 03:37:11;;;;;;;47.05;14.32;;;0.90;99.90;;;;;;5074975;28;20059;-37
2020/12/09 03:39:36;;;;;;;88.80;28.75;;;0.90;99.90;;;;;;5075467;28;20077;-37
2020/12/09 03:42:02;;;;;;;97.95;30.17;;;0.90;99.90;;;;;;5075782;28;20028;-38
2020/12/09 03:44:27;;;;;;;121.18;34.58;;;0.90;99.90;;;;;;5079521;28;20483;-38
2020/12/09 03:46:56;;;;;;;101.25;27.05;;;0.90;99.90;;;;;;5077681;28;20049;-38
2020/12/09 03:49:23;;;;;;;99.03;30.02;;;0.90;99.90;;;;;;5073068;28;20024;-38
2020/12/09 03:51:48;;;;;;;106.68;30.75;;;1.00;99.90;;;;;;5073835;28;20024;-39
2020/12/09 03:54:14;;;;;;;129.88;35.15;;;1.00;99.90;;;;;;5084860;28;20400;-38
2020/12/09 03:56:39;;;;;;;96.20;26.15;;;0.90;99.90;;;;;;5077523;28;20025;-37
2020/12/09 03:59:05;;;;;;;137.68;36.83;;;0.90;99.90;;;;;;5035688;28;20040;-37
2020/12/09 04:01:30;;;;;;;100.68;29.42;;;1.00;99.90;;;;;;5071715;28;20028;-37
2020/12/09 04:03:56;;;;;;;116.50;30.80;;;1.00;99.90;;;;;;5078269;28;20099;-38
2020/12/09 04:06:22;;;;;;;139.05;36.22;;;1.00;99.90;;;;;;5086025;28;20036;-37
2020/12/09 04:08:47;;;;;;;126.50;30.95;;;1.00;99.90;;;;;;5073977;28;20028;-38
2020/12/09 04:11:13;;;;;;;103.45;28.80;;;1.00;99.90;;;;;;5073959;28;20117;-38
2020/12/09 04:13:38;;;;;;;119.65;30.45;;;1.00;99.90;;;;;;5070994;28;20487;-39
2020/12/09 04:16:04;;;;;;;130.27;32.08;;;1.00;99.90;;;;;;5073770;28;20052;-39
2020/12/09 04:18:29;;;;;;;115.63;35.05;;;1.00;99.90;;;;;;5072388;28;21292;-40
2020/12/09 04:20:55;;;;;;;126.38;34.65;;;1.10;99.90;;;;;;5074091;28;20038;-40
2020/12/09 04:23:21;;;;;;;70.13;18.95;;;1.10;99.90;;;;;;5072900;28;20045;-38
2020/12/09 04:25:46;;;;;;;81.28;20.35;;;1.00;99.90;;;;;;5081885;28;20128;-40
2020/12/09 04:28:12;;;;;;;64.07;21.98;;;1.00;99.90;;;;;;5073897;28;20039;-39
2020/12/09 04:30:37;;;;;;;96.05;24.67;;;1.00;99.90;;;;;;5072844;28;20021;-39
2020/12/09 04:33:03;;;;;;;98.70;28.02;;;1.00;99.90;;;;;;5064417;28;20040;-39
2020/12/09 04:35:28;;;;;;;115.47;31.65;;;1.00;99.90;;;;;;5055231;28;20048;-39
2020/12/09 04:37:55;;;;;;;36.75;11.98;;;1.00;99.90;;;;;;5084319;28;20028;-37
2020/12/09 04:40:24;;;;;;;94.10;26.85;;;1.10;99.90;;;;;;5074974;28;20035;-40
2020/12/09 04:43:00;;;;;;;70.60;21.35;;;1.00;99.90;;;;;;5073296;28;20157;-39
2020/12/09 04:45:31;;;;;;;52.90;14.27;;;1.00;99.90;;;;;;5072377;28;20056;-39
2020/12/09 04:48:09;;;;;;;105.82;27.77;;;0.90;99.90;;;;;;5072450;28;20021;-39
2020/12/09 04:50:59;;;;;;;85.25;20.13;;;0.90;99.90;;;;;;5069196;28;20032;-39
2020/12/09 04:53:27;;;;;;;96.43;25.08;;;0.90;99.90;;;;;;5057453;28;20085;-39
2020/12/09 04:55:55;;;;;;;98.70;26.98;;;0.90;99.90;;;;;;5071693;28;20036;-39
2020/12/09 04:58:43;;;;;;;158.77;34.50;;;0.90;99.90;;;;;;5073652;28;20028;-37
2020/12/09 05:01:13;;;;;;;62.15;18.25;;;0.90;99.90;;;;;;5072280;28;20404;-37
2020/12/09 05:03:44;;;;;;;87.20;24.67;;;0.90;99.90;;;;;;5052976;28;20115;-37
2020/12/09 05:06:14;;;;;;;90.43;25.20;;;0.80;99.90;;;;;;5072390;28;20028;-40
2020/12/09 05:08:49;;;;;;;73.30;18.10;;;0.80;99.90;;;;;;5053941;28;20607;-39
2020/12/09 05:11:15;;;;;;;51.30;16.23;;;0.70;99.90;;;;;;5080549;28;20028;-40
2020/12/09 05:13:43;;;;;;;72.60;19.30;;;0.80;99.90;;;;;;5073011;28;20028;-39
2020/12/09 05:16:12;;;;;;;108.75;28.55;;;0.80;99.90;;;;;;5059264;28;20052;-37
2020/12/09 05:18:40;;;;;;;56.67;20.08;;;0.80;99.90;;;;;;5071847;28;20055;-40
2020/12/09 05:21:26;;;;;;;107.55;29.80;;;0.80;99.90;;;;;;5073016;28;20465;-39
2020/12/09 05:23:54;;;;;;;97.55;26.48;;;0.80;99.90;;;;;;5057220;28;20502;-39
2020/12/09 05:26:24;;;;;;;105.63;30.67;;;0.90;99.90;;;;;;5072423;28;20051;-39
2020/12/09 05:29:10;;;;;;;146.10;36.40;;;0.90;99.90;;;;;;5079919;28;20369;-37
2020/12/09 05:31:38;;;;;;;123.85;32.42;;;0.90;99.90;;;;;;5072557;28;20025;-39
2020/12/09 05:34:21;;;;;;;140.23;35.55;;;0.90;99.90;;;;;;5072553;28;20111;-36
2020/12/09 05:36:49;;;;;;;83.03;23.38;;;0.90;99.90;;;;;;5071146;28;20463;-37
2020/12/09 05:39:15;;;;;;;184.63;43.47;;;0.90;99.90;;;;;;5072537;28;20032;-37
2020/12/09 05:41:40;;;;;;;173.02;40.97;;;0.90;99.90;;;;;;5082033;28;20042;-39
2020/12/09 05:44:06;;;;;;;145.05;34.47;;;0.90;99.90;;;;;;5074162;28;20036;-38
2020/12/09 05:46:32;;;;;;;153.50;34.28;;;0.90;99.90;;;;;;5084754;28;20066;-38
2020/12/09 05:48:58;;;;;;;94.28;20.98;;;1.00;99.90;;;;;;5073214;28;20117;-38
2020/12/09 05:51:24;;;;;;;79.13;22.65;;;1.00;99.90;;;;;;5053532;28;20449;-38
2020/12/09 05:53:50;;;;;;;133.77;32.58;;;1.00;99.90;;;;;;5081239;28;20031;-36
2020/12/09 05:56:21;;;;;;;107.82;27.80;;;1.00;99.90;;;;;;5062633;28;20454;-37
2020/12/09 05:58:50;;;;;;;142.57;37.20;;;1.00;99.90;;;;;;5071812;28;20017;-38
2020/12/09 06:01:19;;;;;;;109.85;30.42;;;1.00;99.90;;;;;;5075872;28;20575;-39
2020/12/09 06:03:49;;;;;;;119.80;34.13;;;1.00;99.90;;;;;;5064608;28;20031;-40
2020/12/09 06:06:24;;;;;;;155.90;38.97;;;1.10;99.90;;;;;;5072258;28;20068;-40
2020/12/09 06:08:58;;;;;;;97.90;26.92;;;1.00;99.90;;;;;;5071135;28;20626;-40
2020/12/09 06:11:32;;;;;;;77.00;21.52;;;1.00;99.90;;;;;;5064755;28;20477;-40
2020/12/09 06:13:58;;;;;;;73.55;21.77;;;1.00;99.90;;;;;;5068435;28;20020;-33
2020/12/09 06:16:25;;;;;;;102.22;26.85;;;1.00;99.90;;;;;;5068213;28;20048;-37
2020/12/09 06:18:51;;;;;;;98.15;30.90;;;1.00;99.90;;;;;;5067850;28;20111;-38
2020/12/09 06:21:17;;;;;;;107.60;32.03;;;1.00;99.90;;;;;;5070370;28;20032;-42
2020/12/09 06:23:44;;;;;;;116.05;31.75;;;1.10;99.90;;;;;;5046045;28;20052;-38
2020/12/09 06:26:13;;;;;;;116.88;32.00;;;1.00;99.90;;;;;;5070783;28;20040;-38
2020/12/09 06:28:45;;;;;;;103.15;28.35;;;1.00;99.90;;;;;;5070672;28;20078;-37
2020/12/09 06:31:16;;;;;;;100.38;32.30;;;1.00;99.90;;;;;;5073809;28;20543;-42
2020/12/09 06:33:52;;;;;;;106.10;31.88;;;1.10;99.90;;;;;;5072827;28;20107;-38
2020/12/09 06:36:28;;;;;;;111.20;28.20;;;1.00;99.90;;;;;;5074361;28;20024;-38
2020/12/09 06:39:16;;;;;;;112.57;32.72;;;1.00;99.90;;;;;;5076529;28;20036;-37
2020/12/09 06:42:02;;;;;;;111.60;29.98;;;1.10;99.90;;;;;;5076246;28;20035;-38
2020/12/09 06:44:31;;;;;;;105.55;31.92;;;1.10;99.90;;;;;;5075722;28;20032;-43
2020/12/09 06:46:58;;;;;;;66.38;16.17;;;1.10;99.90;;;;;;5076416;28;20122;-38
2020/12/09 06:49:33;;;;;;;111.40;31.58;;;1.10;99.90;;;;;;5076518;28;20039;-38
2020/12/09 06:52:10;;;;;;;76.65;22.85;;;1.10;99.90;;;;;;5076443;28;20028;-39
2020/12/09 06:54:48;;;;;;;80.28;22.77;;;1.10;99.90;;;;;;5076311;28;20106;-39
2020/12/09 06:57:21;;;;;;;59.22;17.30;;;1.20;99.90;;;;;;5076253;28;20152;-38
2020/12/09 06:59:52;;;;;;;47.28;14.00;;;1.20;99.90;;;;;;5076512;28;20027;-38
2020/12/09 07:02:29;;;;;;;97.13;28.45;;;1.20;99.90;;;;;;5076121;28;20033;-39
2020/12/09 07:04:54;;;;;;;81.53;26.10;;;1.20;99.90;;;;;;5058568;28;20028;-40
2020/12/09 07:07:34;;;;;;;78.60;24.15;;;1.20;99.90;;;;;;5053233;28;20036;-42
2020/12/09 07:10:02;;;;;;;102.47;27.05;;;1.30;99.90;;;;;;5056234;28;20021;-39
2020/12/09 07:12:28;;;;;;;97.80;29.98;;;1.30;99.90;;;;;;5075686;28;20021;-39
2020/12/09 07:14:56;;;;;;;86.10;26.05;;;1.30;99.90;;;;;;5076271;28;20028;-38
2020/12/09 07:17:26;;;;;;;84.70;24.77;;;1.30;99.90;;;;;;5076131;28;20047;-39
2020/12/09 07:19:55;;;;;;;32.33;13.13;;;1.30;99.90;;;;;;5075997;28;20054;-39
2020/12/09 07:22:21;;;;;;;116.05;34.33;;;1.30;99.90;;;;;;5075968;28;20120;-41
2020/12/09 07:24:46;;;;;;;72.25;24.92;;;1.30;99.90;;;;;;5076051;28;20060;-37
2020/12/09 07:27:12;;;;;;;77.78;22.80;;;1.30;99.90;;;;;;5056952;28;20047;-37
2020/12/09 07:29:43;;;;;;;62.47;18.40;;;1.30;99.90;;;;;;5075568;28;20028;-41
2020/12/09 07:32:09;;;;;;;105.45;32.72;;;1.30;99.90;;;;;;5075330;28;20498;-38
2020/12/09 07:34:47;;;;;;;96.97;27.45;;;1.20;99.90;;;;;;5056694;28;20157;-37
2020/12/09 07:37:16;;;;;;;77.82;21.25;;;1.30;99.90;;;;;;5075555;28;20078;-41
2020/12/09 07:39:41;;;;;;;88.65;24.67;;;1.30;99.90;;;;;;5075609;28;20032;-40
2020/12/09 07:42:08;;;;;;;83.85;23.27;;;1.30;99.90;;;;;;5074983;28;20024;-39
2020/12/09 07:44:41;;;;;;;78.07;26.52;;;1.30;99.90;;;;;;5075624;28;20032;-38
2020/12/09 07:47:07;;;;;;;90.57;28.45;;;1.30;99.90;;;;;;5056827;28;20161;-38
2020/12/09 07:49:33;;;;;;;89.18;29.85;;;1.30;99.90;;;;;;5056295;28;20059;-38
2020/12/09 07:51:59;;;;;;;86.57;29.27;;;1.40;99.90;;;;;;5075257;28;20052;-37
2020/12/09 07:54:25;;;;;;;32.75;9.52;;;1.40;99.90;;;;;;5094956;28;20067;-38
2020/12/09 07:56:51;;;;;;;94.15;28.15;;;1.40;99.90;;;;;;5095308;28;20032;-38
2020/12/09 07:59:17;;;;;;;76.93;25.85;;;1.40;99.90;;;;;;5095487;28;20516;-38
2020/12/09 08:01:43;;;;;;;90.40;29.27;;;1.30;99.90;;;;;;5095897;28;20107;-38
2020/12/09 08:04:11;;;;;;;84.15;26.92;;;1.40;99.90;;;;;;5077011;28;20492;-38
2020/12/09 08:06:37;;;;;;;67.38;21.80;;;1.30;99.90;;;;;;5088323;28;20384;-41
2020/12/09 08:09:15;;;;;;;50.05;17.58;;;1.30;99.90;;;;;;5094084;28;20028;-39
2020/12/09 08:11:44;;;;;;;51.55;16.58;;;1.30;99.90;;;;;;5094031;28;20063;-37
2020/12/09 08:14:13;;;;;;;55.28;18.65;;;1.40;99.90;;;;;;5095204;28;20461;-37
2020/12/09 08:16:40;;;;;;;61.90;18.70;;;1.40;99.90;;;;;;5081518;28;20051;-41
2020/12/09 08:19:12;;;;;;;62.75;20.27;;;1.40;99.90;;;;;;5056216;28;20047;-37
2020/12/09 08:21:38;;;;;;;81.20;28.10;;;1.40;99.90;;;;;;5074895;28;20101;-38
2020/12/09 08:24:12;;;;;;;52.65;14.80;;;1.40;99.90;;;;;;5074583;28;20509;-37
2020/12/09 08:26:37;;;;;;;85.57;30.58;;;1.30;99.90;;;;;;5074346;28;20032;-38
2020/12/09 08:29:04;;;;;;;89.65;28.13;;;1.40;99.90;;;;;;5056702;28;20040;-40
2020/12/09 08:31:30;;;;;;;74.70;23.05;;;1.30;99.90;;;;;;5074181;28;20051;-39
2020/12/09 08:33:57;;;;;;;83.40;25.50;;;1.40;99.90;;;;;;5056431;28;20036;-41
2020/12/09 08:36:23;;;;;;;63.78;21.42;;;1.40;99.90;;;;;;5074551;28;20051;-42
2020/12/09 08:38:52;;;;;;;81.25;30.27;;;1.40;99.90;;;;;;5073907;28;20035;-37
2020/12/09 08:41:27;;;;;;;82.90;26.42;;;1.40;99.90;;;;;;5056518;28;20077;-38
2020/12/09 08:43:55;;;;;;;82.47;24.67;;;1.40;99.90;;;;;;5074108;28;20067;-37
2020/12/09 08:46:23;;;;;;;103.72;32.50;;;1.40;99.90;;;;;;5056335;28;20256;-39
2020/12/09 08:48:48;;;;;;;81.43;27.75;;;1.50;99.90;;;;;;5073926;28;20024;-37
2020/12/09 08:51:14;;;;;;;85.90;27.63;;;1.50;99.90;;;;;;5056304;28;20089;-37
2020/12/09 08:53:39;;;;;;;66.25;21.00;;;1.50;99.90;;;;;;5073632;28;20116;-37
2020/12/09 08:56:06;;;;;;;81.72;26.77;;;1.50;99.90;;;;;;5073940;28;20040;-37
2020/12/09 08:58:32;;;;;;;68.05;21.33;;;1.50;99.90;;;;;;5055294;28;20036;-38
2020/12/09 09:01:00;;;;;;;80.43;25.77;;;1.60;99.90;;;;;;5073952;28;20027;-37
2020/12/09 09:03:26;;;;;;;95.65;29.38;;;1.60;99.90;;;;;;5074028;28;20079;-37
2020/12/09 09:05:54;;;;;;;70.45;22.83;;;1.60;99.90;;;;;;5073690;28;20032;-38
2020/12/09 09:08:20;;;;;;;69.38;22.00;;;1.70;99.90;;;;;;5073907;28;20025;-41
2020/12/09 09:10:46;;;;;;;55.67;17.70;;;1.70;99.90;;;;;;5073526;28;20032;-38
2020/12/09 09:13:12;;;;;;;52.03;20.45;;;1.70;99.90;;;;;;5073610;28;20021;-38
2020/12/09 09:15:38;;;;;;;79.03;24.25;;;1.70;99.90;;;;;;5073331;28;20055;-38
2020/12/09 09:18:05;;;;;;;87.80;27.27;;;1.70;99.90;;;;;;5073660;28;20028;-37
2020/12/09 09:20:32;;;;;;;77.82;21.98;;;1.80;99.90;;;;;;5073500;28;20029;-38
2020/12/09 09:22:58;;;;;;;59.60;21.52;;;1.80;99.90;;;;;;5073556;28;20498;-40
2020/12/09 09:25:24;;;;;;;92.38;29.38;;;1.80;99.90;;;;;;5072775;28;20477;-41
2020/12/09 09:27:50;;;;;;;83.25;26.02;;;1.80;99.90;;;;;;5073491;28;20453;-37
2020/12/09 09:30:17;;;;;;;102.47;34.03;;;1.90;99.90;;;;;;5054872;28;20038;-38
2020/12/09 09:32:44;;;;;;;89.18;27.17;;;1.90;99.90;;;;;;5073527;28;20025;-38
2020/12/09 09:35:09;;;;;;;97.53;30.33;;;1.80;99.90;;;;;;5073195;28;20532;-37
2020/12/09 09:37:35;;;;;;;58.63;20.10;;;1.80;99.90;;;;;;5053298;28;20131;-42
2020/12/09 09:40:01;;;;;;;110.47;35.03;;;1.90;99.90;;;;;;5073463;28;20381;-37
2020/12/09 09:42:27;;;;;;;57.75;19.13;;;1.90;99.90;;;;;;5073324;28;20450;-36
2020/12/09 09:44:52;;;;;;;84.85;28.80;;;1.90;99.90;;;;;;5054675;28;20052;-38
2020/12/09 09:47:18;;;;;;;103.55;36.85;;;2.00;99.90;;;;;;5073107;28;20024;-38
2020/12/09 09:49:44;;;;;;;79.68;25.58;;;2.00;99.90;;;;;;5073266;28;20476;-41
2020/12/09 09:52:09;;;;;;;105.63;34.33;;;2.00;99.90;;;;;;5073367;28;20024;-38
2020/12/09 09:54:35;;;;;;;76.57;23.60;;;2.10;99.90;;;;;;5054109;28;20043;-39
2020/12/09 09:57:01;;;;;;;39.60;12.85;;;2.10;99.90;;;;;;5072845;28;20389;-40
2020/12/09 09:59:29;;;;;;;96.00;32.85;;;2.10;99.90;;;;;;5073104;28;20020;-38
2020/12/09 10:01:55;;;;;;;70.45;21.30;;;2.00;99.90;;;;;;5073163;28;20028;-40
2020/12/09 10:04:21;;;;;;;103.90;34.80;;;2.00;99.90;;;;;;5052592;28;20059;-39
2020/12/09 10:06:47;;;;;;;75.00;23.80;;;2.10;99.90;;;;;;5073102;28;20052;-40
2020/12/09 10:09:13;;;;;;;67.45;22.00;;;2.10;99.90;;;;;;5073055;28;20029;-38
2020/12/09 10:11:40;;;;;;;45.53;16.75;;;2.00;99.90;;;;;;5071909;28;20466;-40
2020/12/09 10:14:08;;;;;;;84.60;29.25;;;2.00;99.90;;;;;;5072736;28;20032;-38
2020/12/09 10:16:35;;;;;;;45.92;17.77;;;2.00;99.90;;;;;;5072923;28;20055;-39
2020/12/09 10:19:01;;;;;;;70.10;24.10;;;2.00;99.90;;;;;;5072911;28;20150;-37
2020/12/09 10:21:29;;;;;;;58.95;23.55;;;2.00;99.90;;;;;;5073066;28;20036;-38
2020/12/09 10:23:55;;;;;;;53.20;15.02;;;2.00;99.90;;;;;;5054568;28;20039;-41
2020/12/09 10:26:38;;;;;;;57.05;18.95;;;2.00;99.90;;;;;;5054819;28;20044;-40
2020/12/09 10:29:08;;;;;;;62.05;19.85;;;2.00;99.90;;;;;;5072786;28;20351;-39
2020/12/09 10:31:42;;;;;;;50.35;16.17;;;2.00;99.90;;;;;;5073109;28;20540;-39
2020/12/09 10:34:10;;;;;;;35.40;11.50;;;2.00;99.90;;;;;;5071283;28;20025;-41
2020/12/09 10:36:37;;;;;;;71.90;23.27;;;2.00;99.90;;;;;;5072525;28;20042;-37
2020/12/09 10:39:07;;;;;;;64.50;24.35;;;2.00;99.90;;;;;;5054906;28;20056;-44
2020/12/09 10:41:40;;;;;;;39.55;15.00;;;2.00;99.90;;;;;;5072876;28;20074;-39
2020/12/09 10:44:06;;;;;;;83.82;28.85;;;2.00;99.90;;;;;;5071893;28;20149;-39
2020/12/09 10:46:34;;;;;;;47.33;17.92;;;2.00;99.90;;;;;;5072543;28;20050;-43
2020/12/09 10:49:01;;;;;;;55.95;18.05;;;2.10;99.90;;;;;;5054399;28;20120;-39
2020/12/09 10:51:28;;;;;;;51.08;14.35;;;2.00;99.90;;;;;;5072982;28;20082;-39
2020/12/09 10:53:55;;;;;;;49.25;13.82;;;2.00;99.90;;;;;;5072277;28;20040;-38
2020/12/09 10:56:38;;;;;;;50.28;16.15;;;2.00;99.90;;;;;;5071775;28;20569;-39
2020/12/09 10:59:04;;;;;;;61.72;18.35;;;2.10;99.90;;;;;;5072750;28;20530;-38
2020/12/09 11:01:32;;;;;;;48.33;17.88;;;2.10;99.90;;;;;;5072803;28;20040;-38
2020/12/09 11:04:00;;;;;;;67.55;22.13;;;2.10;99.90;;;;;;5054101;28;20031;-38
2020/12/09 11:06:32;;;;;;;49.17;18.45;;;2.10;99.90;;;;;;5034428;28;20033;-38
2020/12/09 11:08:59;;;;;;;52.13;19.83;;;2.10;99.90;;;;;;5052416;28;20079;-39
2020/12/09 11:11:25;;;;;;;69.38;24.05;;;2.10;99.90;;;;;;5035090;28;20032;-39
2020/12/09 11:13:51;;;;;;;71.32;23.25;;;2.10;99.90;;;;;;5034765;28;20025;-38
2020/12/09 11:16:18;;;;;;;70.10;22.80;;;2.10;99.90;;;;;;5072260;28;20048;-38
2020/12/09 11:18:44;;;;;;;58.33;20.52;;;2.10;99.90;;;;;;5072453;28;20035;-38
2020/12/09 11:21:15;;;;;;;50.25;19.95;;;2.20;99.90;;;;;;5072354;28;20036;-39
2020/12/09 11:23:41;;;;;;;59.10;18.65;;;2.20;99.90;;;;;;5057848;28;20028;-39
2020/12/09 11:26:07;;;;;;;66.40;22.27;;;2.20;99.90;;;;;;5075721;28;20028;-39
2020/12/09 11:28:33;;;;;;;60.65;21.05;;;2.20;99.90;;;;;;5058003;28;20024;-39
2020/12/09 11:30:59;;;;;;;28.65;8.52;;;2.20;99.90;;;;;;5075508;28;20029;-40
2020/12/09 11:33:24;;;;;;;53.85;17.90;;;2.30;99.90;;;;;;5075638;28;20444;-40
2020/12/09 11:35:50;;;;;;;59.20;20.95;;;2.20;99.90;;;;;;5075512;28;20090;-39
2020/12/09 11:38:15;;;;;;;52.33;17.55;;;2.20;99.90;;;;;;5075517;28;20028;-38
2020/12/09 11:40:42;;;;;;;66.20;22.75;;;2.20;99.90;;;;;;5057813;28;20355;-38
2020/12/09 11:43:08;;;;;;;60.08;20.60;;;2.30;99.90;;;;;;5057461;28;20028;-38
2020/12/09 11:45:35;;;;;;;61.40;24.60;;;2.30;99.90;;;;;;5075338;28;20028;-38
2020/12/09 11:48:01;;;;;;;49.78;18.77;;;2.40;99.90;;;;;;5075393;28;20039;-38
2020/12/09 11:50:27;;;;;;;54.03;18.10;;;2.40;99.90;;;;;;5075254;28;20449;-41
2020/12/09 11:52:53;;;;;;;62.83;23.33;;;2.40;99.90;;;;;;5075163;28;20075;-39
2020/12/09 11:55:18;;;;;;;64.28;21.45;;;2.40;99.90;;;;;;5075177;28;20032;-39
2020/12/09 11:57:44;;;;;;;66.60;23.98;;;2.50;99.90;;;;;;5075088;28;20025;-39
2020/12/09 12:00:10;;;;;;;62.67;21.70;;;2.50;99.90;;;;;;5075432;28;20035;-39
2020/12/09 12:02:35;;;;;;;54.40;20.15;;;2.50;99.90;;;;;;5050296;28;20123;-39
2020/12/09 12:05:02;;;;;;;72.70;26.00;;;2.50;99.90;;;;;;5073753;28;20035;-38
2020/12/09 12:07:28;;;;;;;34.53;12.98;;;2.50;99.90;;;;;;5074882;28;20037;-38
2020/12/09 12:09:53;;;;;;;43.55;15.50;;;2.50;99.90;;;;;;5057407;28;20025;-39
2020/12/09 12:12:22;;;;;;;36.83;12.73;;;2.50;99.90;;;;;;5075210;28;20032;-39
2020/12/09 12:14:48;;;;;;;60.65;24.05;;;2.50;99.90;;;;;;5074082;28;20029;-38
2020/12/09 12:17:14;;;;;;;66.53;22.95;;;2.50;99.90;;;;;;5074591;28;20055;-38
2020/12/09 12:19:39;;;;;;;65.25;22.20;;;2.60;99.90;;;;;;5075054;28;20024;-39
2020/12/09 12:22:05;;;;;;;47.67;19.17;;;2.60;99.90;;;;;;5074961;28;20086;-39
2020/12/09 12:24:32;;;;;;;69.63;25.38;;;2.60;99.90;;;;;;5074684;28;20457;-38
2020/12/09 12:26:57;;;;;;;59.63;21.58;;;2.60;99.90;;;;;;5074543;28;20111;-40
2020/12/09 12:29:23;;;;;;;53.13;20.83;;;2.60;99.90;;;;;;5038068;28;20450;-39
2020/12/09 12:31:49;;;;;;;62.33;23.17;;;2.70;99.90;;;;;;5054643;28;20373;-38
2020/12/09 12:34:15;;;;;;;57.05;19.15;;;2.70;99.90;;;;;;5053035;28;20112;-38